Time;durP1;ratioP1;P1;durP2;ratioP2;P2;SDS_P1;SDS_P2;PMS_P1;PMS_P2;Temp;Humidity;BMP_temperature;BMP_pressure;BME280_temperature;BME280_humidity;BME280_pressure;Samples;Min_cycle;Max_cycle;Signal;HPM_P1;HPM_P2
2022/12/18 00:01:33;;;;;;;387.15;40.97;;;-7.40;99.90;;;-9.66;100.00;102669.66;4971360;28;20089;-78
2022/12/18 00:04:02;;;;;;;391.85;37.03;;;-7.40;99.90;;;-9.58;100.00;102681.25;4999726;28;20030;-78
2022/12/18 00:06:29;;;;;;;316.80;34.30;;;-7.30;99.90;;;-9.52;100.00;102676.56;4999408;28;20031;-78
2022/12/18 00:08:57;;;;;;;574.28;47.10;;;-7.20;99.90;;;-9.42;100.00;102676.34;4997189;28;20039;-78
2022/12/18 00:11:27;;;;;;;394.38;38.75;;;-7.20;99.90;;;-9.40;100.00;102676.47;4999830;28;20031;-78
2022/12/18 00:13:55;;;;;;;353.05;34.92;;;-7.10;99.90;;;-9.40;100.00;102676.47;4999221;28;20034;-78
2022/12/18 00:16:24;;;;;;;436.60;37.92;;;-7.10;99.90;;;-9.34;100.00;102677.75;4968332;28;20030;-78
2022/12/18 00:18:53;;;;;;;375.92;36.55;;;-7.00;99.90;;;-9.26;100.00;102675.72;4970983;28;20031;-78
2022/12/18 00:21:20;;;;;;;185.13;30.88;;;-6.90;99.90;;;-9.20;100.00;102680.31;4997623;28;20027;-78
2022/12/18 00:23:47;;;;;;;279.77;35.97;;;-6.90;99.90;;;-9.14;100.00;102679.03;4968470;28;20039;-78
2022/12/18 00:26:21;;;;;;;366.98;43.70;;;-6.80;99.90;;;-9.08;100.00;102686.22;4984129;28;20022;-78
2022/12/18 00:28:51;;;;;;;272.73;34.58;;;-6.80;99.90;;;-9.05;100.00;102695.75;4968738;28;20030;-78
2022/12/18 00:31:21;;;;;;;459.48;38.85;;;-6.80;99.90;;;-9.00;100.00;102690.16;4969387;28;20529;-78
2022/12/18 00:33:47;;;;;;;190.43;30.55;;;-6.70;99.90;;;-8.97;100.00;102690.34;4999009;28;20037;-79
2022/12/18 00:36:22;;;;;;;249.85;29.08;;;-6.70;99.90;;;-8.98;100.00;102690.28;4984196;28;20047;-77
2022/12/18 00:38:49;;;;;;;206.80;32.67;;;-6.70;99.90;;;-8.92;100.00;102689.00;4982030;28;20050;-78
2022/12/18 00:44:02;;;;;;;203.18;31.33;;;-6.60;99.90;;;-8.81;100.00;102681.09;4985658;28;20497;-78
2022/12/18 00:46:28;;;;;;;374.05;34.55;;;-6.60;99.90;;;-8.85;100.00;102686.81;4984626;28;20073;-78
2022/12/18 00:48:54;;;;;;;213.75;28.77;;;-6.50;99.90;;;-8.83;100.00;102683.59;4985027;28;20038;-79
2022/12/18 00:51:20;;;;;;;188.50;31.52;;;-6.50;99.90;;;-8.80;100.00;102690.56;4983632;28;20487;-78
2022/12/18 00:53:45;;;;;;;130.20;31.35;;;-6.50;99.90;;;-8.76;100.00;102695.94;4997254;28;20029;-78
2022/12/18 00:56:11;;;;;;;279.70;32.88;;;-6.50;99.90;;;-8.74;100.00;102703.72;4985607;28;20038;-78
2022/12/18 00:58:37;;;;;;;243.07;33.05;;;-6.50;99.90;;;-8.76;100.00;102706.16;4983156;28;20703;-78
2022/12/18 01:01:08;;;;;;;219.45;31.73;;;-6.50;99.90;;;-8.75;100.00;102718.13;4998414;28;20406;-78
2022/12/18 01:03:34;;;;;;;182.63;31.05;;;-6.40;99.90;;;-8.68;100.00;102716.88;4985346;28;20474;-78
2022/12/18 01:06:06;;;;;;;208.00;31.00;;;-6.40;99.90;;;-8.67;100.00;102716.97;4984361;28;20069;-78
2022/12/18 01:08:31;;;;;;;260.23;31.67;;;-6.40;99.90;;;-8.63;100.00;102718.06;4965811;28;20080;-78
2022/12/18 01:10:57;;;;;;;196.25;28.70;;;-6.40;99.90;;;-8.60;100.00;102715.69;4968579;28;20117;-79
2022/12/18 01:13:23;;;;;;;208.23;31.05;;;-6.40;99.90;;;-8.57;100.00;102718.44;4983498;28;20745;-78
2022/12/18 01:15:52;;;;;;;242.40;31.60;;;-6.40;99.90;;;-8.56;100.00;102720.19;4999055;28;20034;-78
2022/12/18 01:18:18;;;;;;;127.82;27.02;;;-6.30;99.90;;;-8.54;100.00;102727.97;4990018;28;20022;-78
2022/12/18 01:20:46;;;;;;;160.00;30.60;;;-6.30;99.90;;;-8.54;100.00;102728.84;4986766;28;20121;-78
2022/12/18 01:23:13;;;;;;;157.95;27.25;;;-6.30;99.90;;;-8.53;100.00;102719.50;5000736;28;20034;-78
2022/12/18 01:25:38;;;;;;;164.05;27.05;;;-6.30;99.90;;;-8.56;100.00;102722.75;4985334;28;20031;-79
2022/12/18 01:28:04;;;;;;;145.38;25.65;;;-6.30;99.90;;;-8.53;100.00;102730.63;4985172;28;20479;-79
2022/12/18 01:30:30;;;;;;;156.90;28.50;;;-6.30;99.90;;;-8.51;100.00;102730.69;4985866;28;20054;-78
2022/12/18 01:32:56;;;;;;;177.60;31.23;;;-6.30;99.90;;;-8.47;100.00;102727.56;4984427;28;20030;-78
2022/12/18 01:35:21;;;;;;;248.65;29.45;;;-6.30;99.90;;;-8.50;100.00;102729.94;4997878;28;20521;-78
2022/12/18 01:37:47;;;;;;;176.32;30.58;;;-6.30;99.90;;;-8.60;100.00;102723.34;4981926;28;20056;-79
2022/12/18 01:40:13;;;;;;;184.35;29.40;;;-6.30;99.90;;;-8.72;100.00;102717.47;4982604;28;20030;-78
2022/12/18 01:42:39;;;;;;;189.63;29.48;;;-6.40;99.90;;;-8.79;100.00;102720.41;4966512;28;20034;-78
2022/12/18 01:45:06;;;;;;;159.32;29.33;;;-6.40;99.90;;;-8.78;100.00;102729.84;4967049;28;20113;-78
2022/12/18 01:47:45;;;;;;;252.95;31.98;;;-6.40;99.90;;;-8.82;100.00;102722.78;4984925;28;20030;-78
2022/12/18 01:50:33;;;;;;;225.57;30.55;;;-6.40;99.90;;;-8.87;100.00;102718.25;4995450;28;20046;-78
2022/12/18 01:53:14;;;;;;;146.43;28.33;;;-6.50;99.90;;;-8.84;100.00;102726.88;4968205;28;20026;-78
2022/12/18 01:55:51;;;;;;;232.40;29.75;;;-6.50;99.90;;;-8.89;100.00;102719.81;4984455;28;20066;-79
2022/12/18 01:58:20;;;;;;;204.05;29.20;;;-6.50;99.90;;;-8.88;100.00;102726.69;4967119;28;20396;-78
2022/12/18 02:00:46;;;;;;;211.57;29.92;;;-6.50;99.90;;;-8.90;100.00;102723.16;4982462;28;20030;-78
2022/12/18 02:03:12;;;;;;;164.25;25.92;;;-6.50;99.90;;;-8.92;100.00;102719.63;4998428;28;20105;-78
2022/12/18 02:06:00;;;;;;;201.88;30.38;;;-6.50;99.90;;;-8.94;100.00;102728.84;4995989;28;20026;-79
2022/12/18 02:09:23;;;;;;;139.32;27.20;;;-6.60;99.90;;;-9.00;100.00;102725.03;4973579;28;20023;-78
2022/12/18 02:12:17;;;;;;;189.18;28.40;;;-6.60;99.90;;;-9.01;100.00;102731.78;4993447;28;20037;-78
2022/12/18 02:15:16;;;;;;;146.52;27.15;;;-6.60;99.90;;;-8.99;100.00;102731.88;4981477;28;20038;-79
2022/12/18 02:18:14;;;;;;;167.63;26.17;;;-6.60;99.90;;;-9.04;100.00;102723.06;4983010;28;20030;-78
2022/12/18 02:20:57;;;;;;;312.85;29.48;;;-6.60;99.90;;;-9.08;100.00;102732.16;4982485;28;20038;-79
2022/12/18 02:23:35;;;;;;;156.23;27.45;;;-6.70;99.90;;;-9.04;100.00;102726.47;4982050;28;20038;-78
2022/12/18 02:26:30;;;;;;;202.93;27.05;;;-6.70;99.90;;;-9.02;100.00;102734.25;4983324;28;20061;-78
2022/12/18 02:29:04;;;;;;;121.15;23.70;;;-6.70;99.90;;;-8.95;100.00;102737.28;4966842;28;20054;-78
2022/12/18 02:31:40;;;;;;;149.20;26.48;;;-6.70;99.90;;;-8.97;100.00;102737.97;4994993;28;20023;-79
2022/12/18 02:34:09;;;;;;;143.25;25.95;;;-6.60;99.90;;;-8.97;100.00;102741.41;4981937;28;20117;-79
2022/12/18 02:36:39;;;;;;;88.32;24.58;;;-6.70;99.90;;;-9.04;100.00;102731.59;4997305;28;20077;-78
2022/12/18 02:39:10;;;;;;;91.57;24.85;;;-6.70;99.90;;;-9.07;100.00;102733.91;4995066;28;20069;-78
2022/12/18 02:41:38;;;;;;;89.15;25.83;;;-6.70;99.90;;;-9.11;100.00;102722.66;4994388;28;20523;-78
2022/12/18 02:44:11;;;;;;;79.78;23.48;;;-6.70;99.90;;;-9.17;100.00;102729.91;4974085;28;20050;-78
2022/12/18 02:46:43;;;;;;;79.20;22.65;;;-6.80;99.90;;;-9.27;100.00;102739.41;4980843;28;20077;-78
2022/12/18 02:49:43;;;;;;;73.68;21.83;;;-6.90;99.90;;;-9.32;100.00;102741.66;4965806;28;20546;-78
2022/12/18 02:52:31;;;;;;;56.47;18.60;;;-6.90;99.90;;;-9.48;100.00;102734.63;4979990;28;20057;-78
2022/12/18 02:55:25;;;;;;;61.25;19.40;;;-7.10;99.90;;;-9.64;100.00;102731.84;4984798;28;20454;-78
2022/12/18 02:58:34;;;;;;;57.50;19.27;;;-7.30;99.90;;;-9.88;100.00;102729.38;4983196;28;21155;-78
2022/12/18 03:01:21;;;;;;;56.10;18.35;;;-7.40;99.90;;;-10.03;100.00;102725.78;4983044;28;20031;-78
2022/12/18 03:04:12;;;;;;;51.22;18.13;;;-7.40;99.90;;;-10.27;100.00;102724.97;4979170;28;20038;-78
2022/12/18 03:06:53;;;;;;;50.35;16.67;;;-7.70;99.90;;;-10.44;100.00;102736.53;4965319;28;20033;-78
2022/12/18 03:09:31;;;;;;;54.10;17.27;;;-7.90;99.90;;;-10.62;100.00;102729.34;4978092;28;20035;-78
2022/12/18 03:12:24;;;;;;;50.42;16.75;;;-8.00;99.90;;;-10.73;100.00;102732.81;4948978;28;20153;-78
2022/12/18 03:15:03;;;;;;;48.47;16.95;;;-8.20;99.90;;;-10.85;100.00;102726.81;4992840;28;20045;-78
2022/12/18 03:17:33;;;;;;;43.05;16.20;;;-8.30;99.90;;;-10.95;100.00;102721.06;4982908;28;20041;-78
2022/12/18 03:20:12;;;;;;;48.75;16.08;;;-8.40;99.90;;;-11.05;100.00;102718.63;4981784;28;20034;-80
2022/12/18 03:22:41;;;;;;;50.70;16.83;;;-8.50;99.90;;;-11.13;100.00;102717.16;4964667;28;20061;-79
2022/12/18 03:25:10;;;;;;;48.28;16.98;;;-8.60;99.90;;;-11.16;100.00;102730.56;4996100;28;20027;-78
2022/12/18 03:27:43;;;;;;;45.75;16.60;;;-8.60;99.90;;;-11.15;100.00;102741.59;4965035;28;20564;-78
2022/12/18 03:30:12;;;;;;;42.35;15.43;;;-8.70;99.90;;;-11.28;100.00;102749.09;4982742;28;20407;-78
2022/12/18 03:33:51;;;;;;;48.13;16.00;;;-7.70;99.90;;;-11.27;100.00;102750.88;4981497;28;20117;-78
2022/12/18 03:36:17;;;;;;;39.38;14.50;;;-8.80;99.90;;;-11.36;100.00;102744.34;4961219;28;20482;-78
2022/12/18 03:38:43;;;;;;;47.88;15.80;;;-8.80;99.90;;;-11.38;100.00;102740.81;4945544;28;20085;-78
2022/12/18 03:41:29;;;;;;;48.80;15.32;;;-8.80;99.90;;;-11.39;100.00;102736.47;4963599;28;20103;-78
2022/12/18 03:44:25;;;;;;;47.58;16.15;;;-8.90;99.90;;;-11.39;100.00;102733.06;4981769;28;20027;-77
2022/12/18 03:47:44;;;;;;;39.88;13.65;;;-8.90;99.90;;;-11.46;100.00;102729.16;4982982;28;20518;-78
2022/12/18 03:50:26;;;;;;;41.55;14.48;;;-9.00;99.90;;;-11.55;100.00;102723.41;4984318;28;20050;-78
2022/12/18 03:53:07;;;;;;;44.50;15.95;;;-9.00;99.90;;;-11.60;100.00;102720.50;4997314;28;20526;-78
2022/12/18 03:55:35;;;;;;;41.63;14.63;;;-9.00;99.90;;;-11.61;100.00;102717.84;4968898;28;20510;-79
2022/12/18 03:58:05;;;;;;;39.80;12.85;;;-9.10;99.90;;;-11.62;100.00;102721.16;5000714;28;20034;-78
2022/12/18 04:00:33;;;;;;;52.70;15.27;;;-9.10;99.90;;;-11.67;100.00;102717.38;4986970;28;20476;-79
2022/12/18 04:03:01;;;;;;;45.20;16.02;;;-9.10;99.90;;;-11.64;100.00;102722.69;4997989;28;20094;-78
2022/12/18 04:05:29;;;;;;;45.97;15.32;;;-9.10;99.90;;;-11.61;100.00;102735.66;4998933;28;20035;-78
2022/12/18 04:07:58;;;;;;;50.70;15.88;;;-9.10;99.90;;;-11.52;100.00;102738.88;4985369;28;20042;-78
2022/12/18 04:10:24;;;;;;;45.38;16.42;;;-9.20;99.90;;;-11.52;100.00;102750.72;4966757;28;20034;-78
2022/12/18 04:12:49;;;;;;;41.78;14.25;;;-9.20;99.90;;;-11.59;100.00;102751.91;4985529;28;20027;-78
2022/12/18 04:15:15;;;;;;;44.00;16.15;;;-9.20;99.90;;;-11.55;100.00;102753.91;4950470;28;20519;-78
2022/12/18 04:17:48;;;;;;;42.88;14.57;;;-9.20;99.90;;;-11.63;100.00;102755.84;4982669;28;20035;-78
2022/12/18 04:20:15;;;;;;;44.63;15.48;;;-9.20;99.90;;;-11.64;100.00;102753.19;4984869;28;20495;-78
2022/12/18 04:22:40;;;;;;;45.45;16.52;;;-9.20;99.90;;;-11.61;99.92;102758.53;4982470;28;20122;-78
2022/12/18 04:25:07;;;;;;;41.10;14.18;;;-9.20;99.90;;;-11.62;99.94;102752.56;4983229;28;20027;-78
2022/12/18 04:27:33;;;;;;;42.88;15.45;;;-9.20;99.90;;;-11.65;100.00;102753.97;4983623;28;20054;-78
2022/12/18 04:29:58;;;;;;;44.30;14.98;;;-9.20;99.90;;;-11.70;100.00;102750.19;4966693;28;20027;-78
2022/12/18 04:32:24;;;;;;;55.60;16.73;;;-9.20;99.90;;;-11.67;100.00;102763.13;4986461;28;20053;-78
2022/12/18 04:34:50;;;;;;;47.13;14.85;;;-9.20;99.90;;;-11.65;99.19;102759.06;4967385;28;20098;-78
2022/12/18 04:37:18;;;;;;;45.55;15.48;;;-9.30;99.90;;;-11.66;99.98;102772.50;4983797;28;20129;-79
2022/12/18 04:39:44;;;;;;;46.08;14.80;;;-9.20;99.90;;;-11.66;99.62;102775.97;4995719;28;20045;-78
2022/12/18 04:42:10;;;;;;;47.30;15.55;;;-9.30;99.90;;;-11.65;99.66;102781.94;4978834;28;20081;-78
2022/12/18 04:44:36;;;;;;;47.05;14.95;;;-9.30;99.90;;;-11.61;100.00;102791.56;4968740;28;20511;-78
2022/12/18 04:47:02;;;;;;;48.28;16.42;;;-9.30;99.90;;;-11.62;99.39;102782.16;4998270;28;20062;-78
2022/12/18 04:49:28;;;;;;;42.20;14.27;;;-9.30;99.90;;;-11.69;99.24;102777.38;4998373;28;20054;-78
2022/12/18 04:51:54;;;;;;;44.80;15.05;;;-9.30;99.90;;;-11.79;99.34;102781.78;4982982;28;20404;-78
2022/12/18 04:54:25;;;;;;;44.08;14.45;;;-9.30;99.90;;;-11.80;99.07;102779.09;4996815;28;20030;-78
2022/12/18 04:56:51;;;;;;;48.45;15.20;;;-9.30;99.90;;;-11.79;99.67;102788.47;4998096;28;20062;-78
2022/12/18 04:59:16;;;;;;;46.70;15.45;;;-9.30;99.90;;;-11.78;99.53;102793.69;4980108;28;20253;-78
2022/12/18 05:01:42;;;;;;;44.17;15.85;;;-9.30;99.90;;;-11.80;99.61;102794.34;4997275;28;20049;-78
2022/12/18 05:04:08;;;;;;;50.85;15.75;;;-9.30;99.90;;;-11.78;99.75;102796.22;4983605;28;20034;-78
2022/12/18 05:06:34;;;;;;;45.55;15.15;;;-9.40;99.90;;;-11.76;99.52;102799.78;5018356;23;20056;-75
2022/12/18 05:09:00;;;;;;;47.50;15.48;;;-9.40;99.90;;;-11.76;100.00;102801.44;5012581;28;20398;-76
2022/12/18 05:11:28;;;;;;;46.22;16.38;;;-9.40;99.90;;;-11.77;100.00;102798.03;5009662;28;20033;-76
2022/12/18 05:13:57;;;;;;;48.42;14.90;;;-9.40;99.90;;;-11.78;99.35;102796.22;5010045;28;20514;-76
2022/12/18 05:16:22;;;;;;;45.92;15.73;;;-9.40;99.90;;;-11.78;99.51;102791.16;4977448;28;20414;-76
2022/12/18 05:18:48;;;;;;;44.85;14.63;;;-9.40;99.90;;;-11.74;99.39;102786.31;4976357;28;20062;-75
2022/12/18 05:21:14;;;;;;;60.53;17.05;;;-9.30;99.90;;;-11.74;99.63;102788.88;4975380;28;20487;-75
2022/12/18 05:23:44;;;;;;;50.70;16.48;;;-9.30;99.90;;;-11.73;99.73;102788.97;4990215;28;20135;-75
2022/12/18 05:26:17;;;;;;;45.88;17.08;;;-9.30;99.90;;;-11.75;99.66;102785.41;4982604;28;20042;-76
2022/12/18 05:28:45;;;;;;;49.25;16.88;;;-9.40;99.90;;;-11.73;99.37;102793.16;4971936;28;20036;-76
2022/12/18 05:31:14;;;;;;;44.95;15.63;;;-9.30;99.90;;;-11.74;99.95;102781.25;4967905;28;20026;-75
2022/12/18 05:33:40;;;;;;;42.88;16.35;;;-9.40;99.90;;;-11.81;99.28;102765.50;4975232;28;20034;-76
2022/12/18 05:36:09;;;;;;;45.30;15.35;;;-9.40;99.90;;;-11.84;99.09;102765.25;4973548;28;20449;-76
2022/12/18 05:38:41;;;;;;;50.33;16.55;;;-9.40;99.90;;;-11.78;99.70;102775.03;4956952;28;20026;-75
2022/12/18 05:41:08;;;;;;;41.05;14.40;;;-9.40;99.90;;;-11.83;99.60;102786.50;4973813;28;20034;-75
2022/12/18 05:43:37;;;;;;;47.03;16.55;;;-9.40;99.90;;;-11.84;98.98;102799.94;4974425;28;20438;-76
2022/12/18 05:46:08;;;;;;;42.08;14.52;;;-9.40;99.90;;;-11.86;99.40;102791.31;4974726;28;20100;-76
2022/12/18 05:48:34;;;;;;;47.47;15.55;;;-9.40;99.90;;;-11.87;99.52;102790.44;4973892;28;20524;-76
2022/12/18 05:51:07;;;;;;;46.60;16.52;;;-9.40;99.90;;;-11.86;99.51;102786.25;4989719;28;20026;-76
2022/12/18 05:53:36;;;;;;;50.13;16.80;;;-9.40;99.90;;;-11.82;100.00;102789.13;4972613;28;20030;-76
2022/12/18 05:56:05;;;;;;;43.95;14.27;;;-9.30;99.90;;;-11.77;100.00;102794.56;4968313;28;20115;-76
2022/12/18 05:58:32;;;;;;;46.13;14.77;;;-9.30;99.90;;;-11.76;100.00;102794.69;4973555;28;20511;-76
2022/12/18 06:01:05;;;;;;;43.58;16.92;;;-9.30;99.90;;;-11.71;100.00;102796.72;4972000;28;20525;-76
2022/12/18 06:03:31;;;;;;;54.75;15.68;;;-9.30;99.90;;;-11.70;100.00;102808.63;4971727;28;20037;-76
2022/12/18 06:05:56;;;;;;;50.83;16.30;;;-9.30;99.90;;;-11.65;100.00;102817.50;4989496;28;20467;-76
2022/12/18 06:08:22;;;;;;;41.95;15.60;;;-9.30;99.90;;;-11.62;99.97;102815.19;4975823;28;20039;-76
2022/12/18 06:10:54;;;;;;;52.50;17.25;;;-9.20;99.90;;;-11.65;100.00;102809.88;4991155;28;20113;-75
2022/12/18 06:13:21;;;;;;;55.22;16.35;;;-9.30;99.90;;;-11.78;100.00;102796.22;4954489;28;20045;-75
2022/12/18 06:15:47;;;;;;;46.13;14.68;;;-9.30;99.90;;;-11.87;100.00;102795.53;4971721;28;20085;-76
2022/12/18 06:18:13;;;;;;;44.67;15.40;;;-9.40;99.90;;;-11.89;99.72;102807.25;4972597;28;20501;-76
2022/12/18 06:20:41;;;;;;;54.80;16.85;;;-9.40;99.90;;;-11.84;99.46;102826.25;4992775;28;20038;-76
2022/12/18 06:23:12;;;;;;;58.13;17.00;;;-9.40;99.90;;;-11.82;100.00;102839.97;4972469;28;20034;-76
2022/12/18 06:25:39;;;;;;;51.08;15.95;;;-9.40;99.90;;;-11.82;99.26;102839.97;4971316;28;20042;-76
2022/12/18 06:28:05;;;;;;;52.90;16.60;;;-9.40;99.90;;;-11.81;99.16;102841.75;4991950;28;20042;-76
2022/12/18 06:30:31;;;;;;;54.33;17.13;;;-9.40;99.90;;;-11.79;99.93;102837.66;4991201;28;20454;-75
2022/12/18 06:32:57;;;;;;;55.88;17.55;;;-9.40;99.90;;;-11.85;99.75;102831.22;4972307;28;20108;-76
2022/12/18 06:35:30;;;;;;;89.35;29.63;;;-9.40;99.90;;;-11.85;99.46;102823.59;4972281;28;20034;-75
2022/12/18 06:37:56;;;;;;;66.43;21.40;;;-9.50;99.90;;;-11.91;98.86;102821.50;4975868;28;20074;-75
2022/12/18 06:40:22;;;;;;;51.97;15.95;;;-9.50;99.90;;;-11.97;99.55;102819.34;4973661;28;20032;-76
2022/12/18 06:42:48;;;;;;;56.72;17.60;;;-9.50;99.90;;;-11.97;98.98;102808.31;4966738;28;20129;-76
2022/12/18 06:45:21;;;;;;;53.13;17.33;;;-9.50;99.90;;;-11.97;98.90;102804.09;4988433;28;20041;-75
2022/12/18 06:47:47;;;;;;;45.33;15.90;;;-9.50;99.90;;;-11.96;99.67;102807.56;4989030;28;20034;-75
2022/12/18 06:50:13;;;;;;;52.80;17.73;;;-9.50;99.90;;;-11.89;99.73;102811.47;4992008;28;20485;-76
2022/12/18 06:52:40;;;;;;;54.08;17.48;;;-9.50;99.90;;;-11.81;99.97;102821.41;4973415;28;20041;-76
2022/12/18 06:55:10;;;;;;;53.28;16.80;;;-9.50;99.90;;;-11.79;99.09;102835.13;4956728;28;20038;-76
2022/12/18 06:57:37;;;;;;;49.55;18.10;;;-9.50;99.90;;;-11.80;99.61;102842.63;4956324;28;20042;-76
2022/12/18 07:00:06;;;;;;;55.67;17.80;;;-9.50;99.90;;;-11.84;98.97;102855.84;4971781;28;20042;-75
2022/12/18 07:02:32;;;;;;;40.53;14.43;;;-9.60;99.90;;;-11.92;99.10;102852.75;4957730;28;20125;-76
2022/12/18 07:04:58;;;;;;;53.08;15.43;;;-9.60;99.90;;;-12.02;98.63;102848.59;4972548;28;20518;-76
2022/12/18 07:07:29;;;;;;;47.00;15.25;;;-9.70;99.90;;;-12.13;98.47;102841.78;4990422;28;20085;-76
2022/12/18 07:09:55;;;;;;;58.78;17.10;;;-9.70;99.90;;;-12.22;97.79;102836.88;4965498;28;20026;-76
2022/12/18 07:12:21;;;;;;;48.35;16.10;;;-9.80;99.90;;;-12.19;98.03;102841.31;4988885;28;20597;-75
2022/12/18 07:14:47;;;;;;;60.55;17.23;;;-9.80;99.90;;;-12.23;97.49;102840.16;4968413;28;20165;-75
2022/12/18 07:17:13;;;;;;;58.58;21.33;;;-9.80;99.90;;;-12.19;97.95;102841.31;4988179;28;20109;-76
2022/12/18 07:19:38;;;;;;;60.40;17.70;;;-9.80;99.90;;;-12.18;97.10;102843.06;4977375;28;20034;-76
2022/12/18 07:22:10;;;;;;;55.17;17.25;;;-9.80;99.90;;;-12.12;97.21;102847.75;4967880;28;20038;-76
2022/12/18 07:24:36;;;;;;;56.05;17.40;;;-9.70;99.90;;;-12.09;97.60;102853.06;4975717;28;20069;-76
2022/12/18 07:27:02;;;;;;;56.38;18.45;;;-9.70;99.90;;;-12.07;97.53;102856.59;4979047;28;20027;-76
2022/12/18 07:29:28;;;;;;;54.15;17.95;;;-9.60;99.90;;;-11.97;98.04;102865.06;4977599;28;20034;-76
2022/12/18 07:31:54;;;;;;;56.40;17.17;;;-9.60;99.90;;;-11.90;98.20;102879.16;4975616;28;20376;-75
2022/12/18 07:34:20;;;;;;;65.95;18.38;;;-9.70;99.90;;;-11.96;97.91;102878.69;4959735;28;20034;-75
2022/12/18 07:36:48;;;;;;;60.75;18.85;;;-9.60;99.90;;;-11.93;97.29;102885.66;4994563;28;20092;-76
2022/12/18 07:39:13;;;;;;;55.60;18.83;;;-9.60;99.90;;;-11.83;96.99;102883.94;4979017;28;20394;-75
2022/12/18 07:41:45;;;;;;;70.30;19.65;;;-9.50;99.90;;;-11.70;97.93;102880.72;4975344;28;20033;-75
2022/12/18 07:44:12;;;;;;;66.20;19.40;;;-9.40;99.90;;;-11.53;97.24;102882.03;4977493;28;20030;-76
2022/12/18 07:46:40;;;;;;;62.75;19.48;;;-9.30;99.90;;;-11.41;97.21;102882.06;4975380;28;20038;-76
2022/12/18 07:49:06;;;;;;;69.45;22.08;;;-9.10;99.90;;;-11.28;97.99;102887.31;4975425;28;20037;-76
2022/12/18 07:51:32;;;;;;;67.18;20.40;;;-9.00;99.90;;;-11.16;97.96;102883.19;4977152;28;20038;-75
2022/12/18 07:53:58;;;;;;;68.75;20.92;;;-8.90;99.90;;;-11.00;99.30;102887.75;4976645;28;20030;-76
2022/12/18 07:56:24;;;;;;;73.03;21.38;;;-8.80;99.90;;;-10.87;99.09;102886.16;4993637;28;20490;-76
2022/12/18 07:58:49;;;;;;;67.18;19.95;;;-8.70;99.90;;;-10.83;99.00;102880.53;4975527;28;20038;-76
2022/12/18 08:01:20;;;;;;;52.78;16.48;;;-8.50;99.90;;;-10.71;99.49;102884.00;4958399;28;20491;-76
2022/12/18 08:03:45;;;;;;;72.88;21.25;;;-8.40;99.90;;;-10.58;99.48;102901.94;4978285;28;20027;-76
2022/12/18 08:06:11;;;;;;;69.72;22.08;;;-8.30;99.90;;;-10.46;99.91;102901.94;4976499;28;20168;-76
2022/12/18 08:08:37;;;;;;;76.25;22.58;;;-8.20;99.90;;;-10.34;100.00;102897.78;4959134;28;20041;-76
2022/12/18 08:11:03;;;;;;;75.93;22.17;;;-8.10;99.90;;;-10.21;100.00;102894.44;4991911;28;20029;-76
2022/12/18 08:13:29;;;;;;;81.53;21.45;;;-7.90;99.90;;;-10.11;100.00;102891.78;4973632;28;20042;-76
2022/12/18 08:16:06;;;;;;;72.60;22.52;;;-7.80;99.90;;;-10.00;100.00;102896.72;4994450;28;20042;-76
2022/12/18 08:18:37;;;;;;;87.70;24.42;;;-7.70;99.90;;;-9.87;100.00;102899.38;4975143;28;20741;-76
2022/12/18 08:21:20;;;;;;;84.38;22.65;;;-7.60;99.90;;;-9.75;100.00;102902.81;4972662;28;20038;-76
2022/12/18 08:23:46;;;;;;;85.30;23.83;;;-7.50;99.90;;;-9.62;100.00;102917.31;4974637;28;20034;-76
2022/12/18 08:26:13;;;;;;;76.75;22.92;;;-7.40;99.90;;;-9.54;100.00;102917.88;4972086;28;20168;-76
2022/12/18 08:28:40;;;;;;;86.88;23.30;;;-7.40;99.90;;;-9.45;100.00;102925.28;4977136;28;20475;-76
2022/12/18 08:31:10;;;;;;;87.35;24.55;;;-7.20;99.90;;;-9.36;100.00;102926.78;4959023;28;20065;-76
2022/12/18 08:33:37;;;;;;;86.85;23.85;;;-7.20;99.90;;;-9.32;100.00;102944.09;4973348;28;20019;-76
2022/12/18 08:36:05;;;;;;;84.78;24.13;;;-7.10;99.90;;;-9.25;100.00;102944.53;4972067;28;20065;-76
2022/12/18 08:38:32;;;;;;;81.40;24.90;;;-7.10;99.90;;;-9.19;100.00;102938.16;4976798;28;20402;-76
2022/12/18 08:41:05;;;;;;;79.75;25.00;;;-7.00;99.90;;;-9.10;100.00;102938.78;4960187;28;20062;-76
2022/12/18 08:46:17;;;;;;;87.27;25.70;;;-6.90;99.90;;;-8.93;100.00;102942.50;4976457;28;20061;-76
2022/12/18 08:48:51;;;;;;;86.03;26.15;;;-6.80;99.90;;;-8.89;100.00;102951.28;4974177;28;20054;-76
2022/12/18 08:51:17;;;;;;;78.82;23.38;;;-6.70;99.90;;;-8.75;100.00;102949.66;4977620;28;20038;-76
2022/12/18 08:53:44;;;;;;;90.97;25.95;;;-6.70;99.90;;;-8.65;100.00;102954.59;4973569;28;20125;-77
2022/12/18 08:56:10;;;;;;;86.65;26.65;;;-6.60;99.90;;;-8.43;100.00;102966.25;4975323;28;20117;-76
2022/12/18 08:58:41;;;;;;;86.75;26.20;;;-6.50;99.90;;;-8.29;100.00;102966.38;4973125;28;20372;-76
2022/12/18 09:01:11;;;;;;;89.28;25.05;;;-6.40;99.90;;;-8.15;100.00;102971.50;4972305;28;20039;-76
2022/12/18 09:03:37;;;;;;;84.18;27.02;;;-6.30;99.90;;;-8.18;99.32;102967.06;4974275;28;20027;-76
2022/12/18 09:06:10;;;;;;;83.63;24.75;;;-6.30;99.90;;;-8.32;98.67;102963.59;4974256;28;20050;-76
2022/12/18 09:08:42;;;;;;;76.53;23.73;;;-6.30;99.90;;;-8.40;98.32;102953.69;4974619;28;20439;-76
2022/12/18 09:11:31;;;;;;;74.03;24.50;;;-6.30;99.90;;;-8.47;98.32;102957.50;4990303;28;20029;-77
2022/12/18 09:13:59;;;;;;;81.80;24.90;;;-6.40;99.90;;;-8.54;97.50;102958.75;4974333;28;20109;-76
2022/12/18 09:16:29;;;;;;;77.32;24.95;;;-6.40;99.90;;;-8.49;97.65;102961.63;4974887;28;20043;-76
2022/12/18 09:18:59;;;;;;;88.50;26.83;;;-6.40;99.90;;;-8.37;97.03;102970.06;4956599;28;20042;-76
2022/12/18 09:21:33;;;;;;;83.72;27.55;;;-6.40;99.90;;;-8.27;97.67;102963.88;4987117;28;20133;-76
2022/12/18 09:23:59;;;;;;;75.25;25.70;;;-6.30;99.90;;;-8.23;97.14;102965.88;4990170;28;20522;-76
2022/12/18 09:26:26;;;;;;;79.28;26.40;;;-6.30;99.90;;;-8.27;96.81;102953.66;4974953;28;20052;-76
2022/12/18 09:28:55;;;;;;;83.22;27.30;;;-6.30;99.90;;;-8.25;96.66;102959.75;4976114;28;20080;-76
2022/12/18 09:31:27;;;;;;;118.78;42.60;;;-6.20;99.90;;;-8.18;96.68;102959.41;4991791;28;20088;-76
2022/12/18 09:33:59;;;;;;;100.38;35.88;;;-6.20;99.90;;;-8.11;97.15;102964.13;4964787;28;20033;-76
2022/12/18 09:36:33;;;;;;;78.47;25.63;;;-6.20;99.90;;;-8.14;96.95;102961.38;4963490;28;20038;-76
2022/12/18 09:38:59;;;;;;;74.00;25.20;;;-6.10;99.90;;;-8.20;97.23;102960.09;4977257;28;20030;-76
2022/12/18 09:41:39;;;;;;;85.30;27.58;;;-6.10;99.90;;;-8.18;96.52;102961.97;4972253;28;20518;-76
2022/12/18 09:44:26;;;;;;;79.45;24.65;;;-6.10;99.90;;;-8.14;97.50;102963.94;4991102;28;20042;-76
2022/12/18 09:47:15;;;;;;;79.20;25.98;;;-6.10;99.90;;;-8.14;97.54;102971.59;4990867;28;20113;-76
2022/12/18 09:50:00;;;;;;;76.10;24.20;;;-6.10;99.90;;;-8.11;97.51;102976.91;4974873;28;20034;-76
2022/12/18 09:52:49;;;;;;;88.60;24.55;;;-6.00;99.90;;;-8.13;97.35;102975.91;4973989;28;20029;-77
2022/12/18 09:55:40;;;;;;;72.07;24.63;;;-6.10;99.90;;;-8.10;96.86;102967.56;4972216;28;20042;-76
2022/12/18 09:58:22;;;;;;;73.55;24.48;;;-6.00;99.90;;;-8.08;97.70;102972.00;4956538;28;20054;-76
2022/12/18 10:00:51;;;;;;;74.85;24.77;;;-5.90;99.90;;;-7.94;97.82;102957.56;4969693;28;20042;-76
2022/12/18 10:03:17;;;;;;;71.72;24.48;;;-5.70;99.90;;;-7.78;98.41;102966.22;4973663;28;20038;-76
2022/12/18 10:06:15;;;;;;;71.32;25.08;;;-5.50;99.90;;;-7.63;98.99;102965.50;4992164;28;20042;-76
2022/12/18 10:09:21;;;;;;;74.65;23.70;;;-5.20;99.90;;;-7.34;98.80;102971.59;4990279;28;20038;-76
2022/12/18 10:12:32;;;;;;;75.90;26.40;;;-5.10;99.90;;;-7.15;98.72;102980.41;4988189;28;20129;-77
2022/12/18 10:15:15;;;;;;;71.68;24.88;;;-5.10;99.90;;;-7.15;98.89;102971.03;4975935;28;20041;-76